Time;durP1;ratioP1;P1;durP2;ratioP2;P2;SDS_P1;SDS_P2;PMS_P1;PMS_P2;Temp;Humidity;BMP_temperature;BMP_pressure;BME280_temperature;BME280_humidity;BME280_pressure;Samples;Min_cycle;Max_cycle;Signal;HPM_P1;HPM_P2
2020/12/25 00:01:36;;;;;;;18.83;4.05;;;13.50;96.70;;;;;;5008225;28;20049;-87
2020/12/25 00:04:03;;;;;;;14.82;3.70;;;13.50;96.70;;;;;;5022802;28;20052;-88
2020/12/25 00:06:35;;;;;;;15.95;3.28;;;13.50;96.70;;;;;;4992154;28;20042;-89
2020/12/25 00:09:04;;;;;;;19.05;2.65;;;13.50;96.70;;;;;;5021378;28;20033;-87
2020/12/25 00:11:33;;;;;;;14.77;2.13;;;13.60;96.70;;;;;;5008102;28;20461;-88
2020/12/25 00:14:00;;;;;;;12.38;2.65;;;13.60;96.70;;;;;;5016649;28;20041;-88
2020/12/25 00:16:29;;;;;;;12.95;2.53;;;13.60;96.70;;;;;;4990695;28;20053;-89
2020/12/25 00:18:56;;;;;;;17.08;2.70;;;13.60;96.70;;;;;;5007088;28;20041;-88
2020/12/25 00:21:24;;;;;;;8.98;2.45;;;13.60;96.70;;;;;;5008432;28;20518;-88
2020/12/25 00:23:51;;;;;;;14.10;3.28;;;13.60;96.70;;;;;;4994306;28;20049;-88
2020/12/25 00:26:23;;;;;;;10.82;2.83;;;13.60;96.70;;;;;;5023663;28;20029;-88
2020/12/25 00:28:51;;;;;;;17.45;4.90;;;13.60;96.70;;;;;;5006918;28;20033;-88
2020/12/25 00:31:24;;;;;;;10.70;2.35;;;13.50;96.70;;;;;;5020201;28;20045;-86
2020/12/25 00:33:56;;;;;;;13.13;4.00;;;13.50;96.70;;;;;;4964112;28;20108;-87
2020/12/25 00:36:25;;;;;;;17.55;4.47;;;13.50;96.70;;;;;;4983342;28;20050;-86
2020/12/25 00:38:52;;;;;;;15.32;4.20;;;13.50;96.70;;;;;;4965599;28;20114;-88
2020/12/25 00:41:20;;;;;;;12.68;3.28;;;13.50;96.70;;;;;;4986592;28;20042;-87
2020/12/25 00:43:47;;;;;;;12.65;3.67;;;13.50;96.70;;;;;;5009385;28;20049;-87
2020/12/25 00:46:15;;;;;;;15.27;4.18;;;13.50;96.70;;;;;;5003089;28;20045;-89
2020/12/25 00:48:43;;;;;;;16.42;4.65;;;13.50;96.70;;;;;;5003596;28;20038;-88
2020/12/25 00:51:13;;;;;;;15.80;2.90;;;13.40;96.70;;;;;;5003154;28;20125;-89
2020/12/25 00:53:41;;;;;;;12.40;3.45;;;13.50;96.70;;;;;;5019232;28;20073;-89
2020/12/25 00:56:11;;;;;;;10.85;2.65;;;13.50;96.70;;;;;;5019616;28;20558;-88
2020/12/25 00:58:39;;;;;;;12.25;2.72;;;13.50;96.70;;;;;;5018391;28;20037;-88
2020/12/25 01:01:09;;;;;;;10.90;2.83;;;13.40;96.70;;;;;;5019309;28;20045;-89
2020/12/25 01:03:38;;;;;;;10.45;2.58;;;13.40;96.70;;;;;;4982401;28;20077;-88
2020/12/25 01:06:09;;;;;;;13.65;2.00;;;13.40;96.70;;;;;;5016411;28;20042;-87
2020/12/25 01:08:37;;;;;;;21.25;4.20;;;13.40;96.70;;;;;;4999540;28;20049;-89
2020/12/25 01:11:05;;;;;;;13.63;2.67;;;13.40;96.70;;;;;;5007522;28;20038;-88
2020/12/25 01:13:32;;;;;;;9.77;2.40;;;13.40;96.70;;;;;;5018326;28;20133;-87
2020/12/25 01:16:03;;;;;;;12.27;2.33;;;13.40;96.70;;;;;;5003081;28;20061;-87
2020/12/25 01:18:30;;;;;;;14.02;2.00;;;13.30;96.70;;;;;;4986505;28;20152;-88
2020/12/25 01:20:57;;;;;;;13.13;2.60;;;13.30;96.70;;;;;;5003582;28;20037;-88
2020/12/25 01:23:25;;;;;;;13.50;3.15;;;13.30;96.70;;;;;;5004214;28;20050;-87
2020/12/25 01:25:53;;;;;;;13.00;2.78;;;13.30;96.70;;;;;;4990176;28;20053;-88
2020/12/25 01:28:20;;;;;;;15.38;2.42;;;13.30;96.70;;;;;;4984104;28;20054;-88
2020/12/25 01:30:47;;;;;;;12.43;2.53;;;13.30;96.70;;;;;;5014904;28;20126;-87
2020/12/25 01:33:15;;;;;;;15.27;2.92;;;13.30;96.70;;;;;;4984162;28;20089;-88
2020/12/25 01:35:42;;;;;;;14.02;2.38;;;13.30;96.70;;;;;;5001776;28;20038;-86
2020/12/25 01:38:10;;;;;;;14.13;2.90;;;13.30;96.70;;;;;;5005580;28;20045;-87
2020/12/25 01:40:37;;;;;;;15.25;2.80;;;13.30;96.70;;;;;;4990543;28;20038;-89
2020/12/25 01:43:05;;;;;;;15.90;2.95;;;13.30;96.70;;;;;;4999510;28;20575;-88
2020/12/25 01:45:32;;;;;;;11.55;2.35;;;13.30;96.70;;;;;;4999604;28;20084;-88
2020/12/25 01:48:00;;;;;;;13.05;2.45;;;13.30;96.70;;;;;;5009644;28;20038;-89
2020/12/25 01:50:29;;;;;;;13.05;2.85;;;13.30;96.70;;;;;;5009449;28;20504;-87
2020/12/25 01:52:57;;;;;;;12.48;2.58;;;13.30;96.70;;;;;;4973638;28;20046;-87
2020/12/25 01:55:29;;;;;;;11.95;2.15;;;13.30;96.70;;;;;;5001023;28;20124;-87
2020/12/25 01:57:59;;;;;;;15.70;2.17;;;13.30;96.70;;;;;;5017273;28;20115;-87
2020/12/25 02:00:29;;;;;;;11.30;2.42;;;13.40;96.70;;;;;;5005615;28;20053;-88
2020/12/25 02:02:56;;;;;;;13.30;2.47;;;13.40;96.70;;;;;;5005721;28;20045;-89
2020/12/25 02:05:24;;;;;;;18.80;2.55;;;13.30;96.70;;;;;;4974012;28;20042;-89
2020/12/25 02:07:51;;;;;;;12.52;2.17;;;13.30;96.70;;;;;;5005931;28;20045;-88
2020/12/25 02:10:18;;;;;;;12.70;2.15;;;13.30;96.70;;;;;;5004243;28;20052;-88
2020/12/25 02:12:46;;;;;;;12.52;1.92;;;13.30;96.70;;;;;;4989042;28;20140;-88
2020/12/25 02:15:13;;;;;;;13.50;2.38;;;13.30;96.70;;;;;;5004689;28;20121;-88
2020/12/25 02:17:44;;;;;;;15.13;2.10;;;13.30;96.70;;;;;;5010173;28;20516;-88
2020/12/25 02:20:12;;;;;;;10.55;2.10;;;13.30;96.70;;;;;;5005838;28;20041;-88
2020/12/25 02:22:40;;;;;;;14.70;2.30;;;13.40;96.70;;;;;;5005980;28;20045;-87
2020/12/25 02:25:08;;;;;;;10.23;2.25;;;13.40;96.70;;;;;;5020447;28;20073;-87
2020/12/25 02:27:36;;;;;;;12.60;2.20;;;13.40;96.70;;;;;;5022341;28;20069;-88
2020/12/25 02:30:05;;;;;;;11.75;2.00;;;13.40;96.70;;;;;;4998393;28;20042;-88
2020/12/25 02:32:33;;;;;;;11.77;1.65;;;13.40;96.70;;;;;;4997630;28;20054;-88
2020/12/25 02:35:11;;;;;;;11.20;2.00;;;13.40;96.70;;;;;;4993144;28;20050;-87
2020/12/25 02:37:39;;;;;;;15.27;2.20;;;13.40;96.70;;;;;;4990680;28;20041;-88
2020/12/25 02:40:08;;;;;;;14.27;3.25;;;13.40;96.70;;;;;;5019543;28;20042;-88
2020/12/25 02:42:36;;;;;;;12.63;2.17;;;13.30;96.70;;;;;;4992580;28;20076;-89
2020/12/25 02:45:05;;;;;;;11.18;1.98;;;13.40;96.70;;;;;;5020168;28;20081;-89
2020/12/25 02:47:32;;;;;;;10.18;1.85;;;13.40;96.70;;;;;;5021780;28;20034;-88
2020/12/25 02:49:59;;;;;;;10.57;2.08;;;13.40;96.70;;;;;;4989845;28;20045;-90
2020/12/25 02:52:27;;;;;;;11.60;2.38;;;13.40;96.70;;;;;;5013097;28;20042;-90
2020/12/25 02:54:55;;;;;;;12.52;2.45;;;13.40;96.70;;;;;;5007414;28;20246;-90
2020/12/25 02:57:22;;;;;;;10.43;2.00;;;13.40;96.70;;;;;;5006011;28;20839;-90
2020/12/25 02:59:49;;;;;;;13.55;2.40;;;13.30;96.70;;;;;;5006555;28;20108;-89
2020/12/25 03:02:16;;;;;;;6.63;1.77;;;13.30;96.70;;;;;;5007579;28;20037;-89
2020/12/25 03:04:43;;;;;;;11.07;2.13;;;13.40;96.70;;;;;;5005859;28;20085;-90
2020/12/25 03:07:11;;;;;;;11.63;1.77;;;13.40;96.70;;;;;;5004056;28;20046;-89
2020/12/25 03:09:39;;;;;;;11.18;1.80;;;13.40;96.70;;;;;;5006493;28;20045;-89
2020/12/25 03:12:07;;;;;;;11.60;3.13;;;13.40;96.70;;;;;;5013948;28;20505;-89
2020/12/25 03:14:34;;;;;;;11.38;1.80;;;13.40;96.70;;;;;;5022339;28;20081;-88
2020/12/25 03:17:01;;;;;;;13.88;2.30;;;13.40;96.70;;;;;;5021737;28;20041;-90
2020/12/25 03:19:29;;;;;;;13.50;3.20;;;13.50;96.70;;;;;;5002622;28;20663;-89
2020/12/25 03:21:56;;;;;;;11.20;1.98;;;13.50;96.70;;;;;;4984811;28;20050;-90
2020/12/25 03:24:23;;;;;;;14.68;2.40;;;13.50;96.70;;;;;;5031068;28;20089;-91
2020/12/25 03:26:50;;;;;;;15.60;1.95;;;13.50;96.70;;;;;;5014142;28;20038;-88
2020/12/25 03:29:18;;;;;;;14.35;2.20;;;13.50;96.70;;;;;;5007103;28;20093;-90
2020/12/25 03:31:46;;;;;;;15.05;2.28;;;13.50;96.70;;;;;;5004701;28;20046;-89
2020/12/25 03:34:14;;;;;;;9.98;2.22;;;13.50;96.70;;;;;;5021311;28;20057;-90
2020/12/25 03:36:41;;;;;;;8.75;2.13;;;13.50;96.70;;;;;;5021827;28;20046;-88
2020/12/25 03:39:09;;;;;;;9.88;2.55;;;13.50;96.70;;;;;;5002861;28;20093;-89
2020/12/25 03:41:36;;;;;;;12.93;2.50;;;13.50;96.70;;;;;;5004195;28;20045;-89
2020/12/25 03:44:04;;;;;;;12.45;2.65;;;13.50;96.70;;;;;;5005711;28;20046;-90
2020/12/25 03:46:34;;;;;;;15.18;2.53;;;13.50;96.70;;;;;;4986142;28;20192;-90
2020/12/25 03:49:01;;;;;;;9.38;1.75;;;13.50;96.70;;;;;;4988011;28;20053;-90
2020/12/25 03:51:28;;;;;;;11.50;2.17;;;13.50;96.70;;;;;;5005748;28;20045;-90
2020/12/25 03:53:56;;;;;;;10.95;2.20;;;13.50;96.70;;;;;;5003852;28;20074;-89
2020/12/25 03:56:23;;;;;;;10.60;2.50;;;13.50;96.70;;;;;;5019399;28;20038;-89
2020/12/25 03:58:50;;;;;;;13.38;2.08;;;13.50;96.70;;;;;;5020398;28;20040;-88
2020/12/25 04:01:17;;;;;;;9.35;1.90;;;13.50;96.70;;;;;;5005110;28;20054;-88
2020/12/25 04:03:46;;;;;;;14.23;3.13;;;13.40;96.70;;;;;;5006601;28;20060;-88
2020/12/25 04:06:13;;;;;;;11.93;2.20;;;13.40;96.70;;;;;;5004250;28;20045;-89
2020/12/25 04:08:40;;;;;;;7.85;1.60;;;13.40;96.70;;;;;;5004171;28;20456;-89
2020/12/25 04:11:08;;;;;;;17.33;2.58;;;13.40;96.70;;;;;;5006760;28;20499;-90
2020/12/25 04:13:36;;;;;;;8.07;1.42;;;13.40;96.70;;;;;;5005169;28;20456;-89
2020/12/25 04:16:03;;;;;;;11.25;2.33;;;13.40;96.70;;;;;;5003975;28;20046;-89
2020/12/25 04:18:31;;;;;;;14.13;2.42;;;13.40;96.70;;;;;;5021233;28;20038;-87
2020/12/25 04:20:59;;;;;;;10.15;2.00;;;13.40;96.70;;;;;;4988901;28;20052;-88
2020/12/25 04:23:27;;;;;;;10.82;2.30;;;13.30;96.70;;;;;;5005460;28;20049;-87
2020/12/25 04:25:55;;;;;;;13.52;2.20;;;13.30;96.70;;;;;;5004102;28;20100;-90
2020/12/25 04:28:22;;;;;;;10.18;2.22;;;13.30;96.70;;;;;;5005803;28;20034;-90
2020/12/25 04:30:49;;;;;;;16.17;2.33;;;13.30;96.70;;;;;;4986484;28;20053;-89
2020/12/25 04:33:16;;;;;;;11.77;2.83;;;13.30;96.70;;;;;;5003984;28;20595;-89
2020/12/25 04:35:43;;;;;;;13.50;2.33;;;13.30;96.70;;;;;;5006128;28;20038;-89
2020/12/25 04:38:13;;;;;;;10.45;2.17;;;13.30;96.70;;;;;;5003692;28;20042;-88
2020/12/25 04:40:42;;;;;;;16.83;2.90;;;13.30;96.70;;;;;;4988443;28;20277;-90
2020/12/25 04:43:10;;;;;;;13.23;2.90;;;13.20;96.70;;;;;;4990361;28;20121;-89
2020/12/25 04:45:37;;;;;;;11.68;2.92;;;13.20;96.70;;;;;;4964846;28;20141;-89
2020/12/25 04:48:06;;;;;;;11.20;2.15;;;13.30;96.70;;;;;;5010475;28;20045;-87
2020/12/25 04:50:33;;;;;;;9.30;2.08;;;13.20;96.70;;;;;;5004890;28;20050;-89
2020/12/25 04:53:00;;;;;;;11.07;2.53;;;13.20;96.70;;;;;;4995727;28;20384;-88
2020/12/25 04:55:29;;;;;;;13.27;2.20;;;13.20;96.70;;;;;;5004035;28;20034;-89
2020/12/25 04:57:57;;;;;;;8.55;1.90;;;13.20;96.70;;;;;;5015042;28;20042;-89
2020/12/25 05:00:27;;;;;;;9.80;1.83;;;13.10;96.70;;;;;;5002973;28;20515;-88
2020/12/25 05:02:54;;;;;;;10.55;2.13;;;13.00;96.70;;;;;;5016383;28;20133;-88
2020/12/25 05:05:27;;;;;;;8.63;1.48;;;12.90;96.70;;;;;;5004125;28;20042;-88
2020/12/25 05:07:56;;;;;;;10.88;1.88;;;12.80;96.70;;;;;;5003240;28;20037;-88
2020/12/25 05:10:23;;;;;;;8.82;1.48;;;12.90;96.70;;;;;;5019328;28;20490;-88
2020/12/25 05:12:51;;;;;;;8.82;1.40;;;12.80;96.70;;;;;;4986891;28;20065;-89
2020/12/25 05:15:19;;;;;;;13.52;2.42;;;12.70;96.70;;;;;;4987818;28;20042;-88
2020/12/25 05:17:46;;;;;;;12.57;2.40;;;12.70;96.70;;;;;;4984924;28;20711;-88
2020/12/25 05:20:13;;;;;;;10.27;1.75;;;12.80;96.70;;;;;;5002292;28;20041;-87
2020/12/25 05:22:40;;;;;;;10.32;1.75;;;12.80;96.70;;;;;;5002447;28;20037;-88
2020/12/25 05:25:08;;;;;;;12.27;1.73;;;12.80;96.70;;;;;;5002883;28;20038;-88
2020/12/25 05:27:35;;;;;;;11.00;2.20;;;12.80;96.70;;;;;;5003704;28;20137;-89
2020/12/25 05:30:06;;;;;;;9.25;1.58;;;12.80;96.70;;;;;;4989631;28;20045;-88
2020/12/25 05:32:34;;;;;;;11.13;1.90;;;12.80;96.70;;;;;;5018400;28;20084;-88
2020/12/25 05:35:02;;;;;;;8.85;1.80;;;12.80;96.70;;;;;;5018706;28;20738;-89
2020/12/25 05:37:35;;;;;;;9.55;1.73;;;12.80;96.70;;;;;;5002663;28;20044;-89
2020/12/25 05:40:05;;;;;;;9.65;1.70;;;12.80;96.70;;;;;;5019138;28;20076;-89
2020/12/25 05:42:44;;;;;;;9.90;1.63;;;12.80;96.70;;;;;;5019307;28;20108;-87
2020/12/25 05:45:16;;;;;;;11.30;1.55;;;12.80;96.70;;;;;;5004150;28;20135;-88
2020/12/25 05:47:45;;;;;;;11.10;1.83;;;12.80;96.70;;;;;;5003541;28;20045;-87
2020/12/25 05:50:19;;;;;;;12.75;2.33;;;12.80;96.70;;;;;;4984429;28;20548;-88
2020/12/25 05:52:48;;;;;;;13.90;2.00;;;12.90;96.70;;;;;;5002248;28;20045;-88
2020/12/25 05:55:18;;;;;;;8.98;2.53;;;12.90;96.70;;;;;;4985905;28;20038;-87
2020/12/25 05:57:50;;;;;;;11.85;1.80;;;12.90;96.70;;;;;;4986857;28;20329;-90
2020/12/25 06:00:20;;;;;;;9.70;1.60;;;12.90;96.70;;;;;;5000896;28;20049;-89
2020/12/25 06:02:49;;;;;;;8.10;1.35;;;12.90;96.70;;;;;;5004851;28;20045;-89
2020/12/25 06:05:17;;;;;;;9.15;2.38;;;12.90;96.70;;;;;;4985160;28;20038;-88
2020/12/25 06:07:49;;;;;;;10.63;2.10;;;12.90;96.70;;;;;;5017978;28;20045;-89
2020/12/25 06:10:18;;;;;;;11.35;2.38;;;12.80;96.70;;;;;;5018710;28;20045;-89
2020/12/25 06:12:45;;;;;;;11.18;2.03;;;12.50;96.70;;;;;;4988872;28;20551;-88
2020/12/25 06:15:18;;;;;;;10.07;1.73;;;12.40;96.70;;;;;;5000664;28;20050;-88
2020/12/25 06:18:02;;;;;;;9.88;2.08;;;12.30;96.70;;;;;;4996938;28;20052;-87
2020/12/25 06:20:34;;;;;;;7.18;1.98;;;12.20;96.70;;;;;;5022499;28;20339;-88
2020/12/25 06:23:04;;;;;;;10.63;2.17;;;12.20;96.70;;;;;;4986762;28;20051;-88
2020/12/25 06:25:31;;;;;;;9.90;1.85;;;12.20;96.70;;;;;;4989160;28;20050;-88
2020/12/25 06:28:01;;;;;;;10.73;1.42;;;12.20;96.70;;;;;;5017928;28;20034;-87
2020/12/25 06:30:30;;;;;;;11.85;2.08;;;12.20;96.70;;;;;;5014550;28;20780;-88
2020/12/25 06:32:58;;;;;;;12.55;1.58;;;12.20;96.70;;;;;;5017866;28;20085;-87
2020/12/25 06:35:30;;;;;;;11.55;1.60;;;12.20;96.70;;;;;;4999805;28;20046;-87
2020/12/25 06:37:57;;;;;;;11.50;1.73;;;12.20;96.70;;;;;;4999734;28;20137;-88
2020/12/25 06:40:25;;;;;;;14.40;1.75;;;12.10;96.70;;;;;;5021839;28;20488;-87
2020/12/25 06:42:55;;;;;;;9.00;2.05;;;12.10;96.70;;;;;;4992813;28;20140;-88
2020/12/25 06:45:28;;;;;;;9.73;1.80;;;12.10;96.70;;;;;;5022209;28;20577;-87
2020/12/25 06:48:12;;;;;;;9.98;1.95;;;12.00;96.70;;;;;;5006992;28;20042;-87
2020/12/25 06:50:41;;;;;;;6.95;1.40;;;12.10;96.70;;;;;;5002243;28;20092;-88
2020/12/25 06:53:09;;;;;;;8.90;1.10;;;12.10;96.70;;;;;;5004174;28;20045;-87
2020/12/25 06:55:42;;;;;;;6.25;1.50;;;12.10;96.70;;;;;;5006318;28;20049;-87
2020/12/25 06:58:09;;;;;;;10.30;1.58;;;12.10;96.70;;;;;;5004479;28;20115;-89
2020/12/25 07:00:39;;;;;;;10.48;1.63;;;12.20;96.70;;;;;;5022276;28;20053;-87
2020/12/25 07:03:11;;;;;;;9.50;1.35;;;12.20;96.70;;;;;;5021238;28;20122;-87
2020/12/25 07:05:46;;;;;;;6.97;1.65;;;12.10;96.70;;;;;;5015104;28;20424;-87
2020/12/25 07:08:29;;;;;;;10.27;2.38;;;12.10;96.70;;;;;;5020913;28;20574;-88
2020/12/25 07:11:02;;;;;;;8.07;1.90;;;12.10;96.70;;;;;;5017200;28;20054;-89
2020/12/25 07:13:31;;;;;;;7.97;1.25;;;12.00;96.70;;;;;;5013740;28;20060;-88
2020/12/25 07:15:59;;;;;;;6.82;1.15;;;12.00;96.70;;;;;;5021912;28;20571;-88
2020/12/25 07:18:26;;;;;;;7.32;1.00;;;12.00;96.70;;;;;;5005095;28;20121;-88
2020/12/25 07:20:57;;;;;;;6.63;1.20;;;11.90;96.70;;;;;;5021229;28;20069;-88
2020/12/25 07:23:24;;;;;;;6.70;1.75;;;11.90;96.70;;;;;;4974297;28;20428;-88
2020/12/25 07:25:56;;;;;;;8.65;1.65;;;11.90;96.70;;;;;;5003253;28;20050;-87
2020/12/25 07:28:24;;;;;;;7.65;1.85;;;12.00;96.70;;;;;;5020945;28;20053;-88
2020/12/25 07:30:52;;;;;;;7.65;1.52;;;12.00;96.70;;;;;;5005042;28;20056;-89
2020/12/25 07:33:20;;;;;;;8.38;1.23;;;12.10;96.70;;;;;;5020003;28;20049;-89
2020/12/25 07:35:48;;;;;;;6.82;1.25;;;12.10;96.70;;;;;;4987495;28;20046;-89
2020/12/25 07:38:29;;;;;;;4.88;2.00;;;12.10;96.70;;;;;;4985472;28;20057;-88
2020/12/25 07:40:56;;;;;;;19.85;10.23;;;12.10;96.70;;;;;;5005719;28;20402;-88
2020/12/25 07:43:23;;;;;;;9.60;3.38;;;12.10;96.70;;;;;;4987824;28;20042;-88
2020/12/25 07:45:50;;;;;;;13.27;4.63;;;12.10;96.70;;;;;;5021000;28;20052;-88
2020/12/25 07:48:18;;;;;;;26.05;13.82;;;12.10;96.70;;;;;;4974979;28;20659;-89
2020/12/25 07:50:46;;;;;;;13.38;6.18;;;12.20;96.70;;;;;;4986817;28;20042;-88
2020/12/25 07:53:14;;;;;;;28.08;12.60;;;12.20;96.70;;;;;;5004745;28;20046;-88
2020/12/25 07:55:45;;;;;;;13.10;5.53;;;12.20;96.70;;;;;;4988313;28;20294;-89
2020/12/25 07:58:13;;;;;;;13.15;4.80;;;12.20;96.70;;;;;;5005305;28;20057;-87
2020/12/25 08:00:41;;;;;;;7.60;3.42;;;12.30;96.70;;;;;;4987767;28;20682;-89
2020/12/25 08:03:09;;;;;;;19.30;6.35;;;12.20;96.70;;;;;;4972388;28;20507;-89
2020/12/25 08:05:37;;;;;;;9.55;3.53;;;12.30;96.70;;;;;;5004031;28;20038;-89
2020/12/25 08:08:05;;;;;;;9.63;2.92;;;12.30;96.70;;;;;;5003675;28;20056;-89
2020/12/25 08:10:34;;;;;;;10.07;2.95;;;12.30;96.70;;;;;;4987414;28;20401;-87
2020/12/25 08:13:05;;;;;;;15.07;4.05;;;12.30;96.70;;;;;;4988903;28;20037;-86
2020/12/25 08:15:33;;;;;;;28.58;13.68;;;12.40;96.70;;;;;;5002153;28;20105;-88
2020/12/25 08:18:03;;;;;;;23.52;11.50;;;12.40;96.70;;;;;;4987426;28;20116;-86
2020/12/25 08:20:31;;;;;;;29.25;14.10;;;12.40;96.70;;;;;;4980847;28;20037;-90
2020/12/25 08:22:59;;;;;;;15.80;5.82;;;12.40;96.70;;;;;;5000116;28;20038;-89
2020/12/25 08:25:28;;;;;;;11.75;5.68;;;12.40;96.70;;;;;;4969947;28;20060;-90
2020/12/25 08:27:55;;;;;;;19.20;5.82;;;12.40;96.70;;;;;;4968693;28;20046;-87
2020/12/25 08:30:25;;;;;;;13.20;5.10;;;12.40;96.70;;;;;;4999324;28;20069;-91
2020/12/25 08:32:56;;;;;;;12.18;4.70;;;12.40;96.70;;;;;;4983390;28;20050;-88
2020/12/25 08:35:27;;;;;;;13.45;3.95;;;12.40;96.70;;;;;;4985417;28;20048;-90
2020/12/25 08:37:56;;;;;;;15.43;5.00;;;12.50;96.70;;;;;;4986340;28;20065;-88
2020/12/25 08:40:29;;;;;;;11.00;2.35;;;12.60;96.70;;;;;;4984618;28;21009;-82
2020/12/25 08:43:05;;;;;;;8.68;2.15;;;12.70;96.70;;;;;;5000198;28;20049;-88
2020/12/25 08:45:33;;;;;;;10.00;2.37;;;12.80;96.70;;;;;;5013963;28;20050;-83
2020/12/25 08:48:05;;;;;;;5.45;1.90;;;12.90;96.70;;;;;;4964265;28;20034;-88
2020/12/25 08:50:32;;;;;;;13.90;2.92;;;12.80;96.70;;;;;;4986521;28;20050;-88
2020/12/25 08:53:16;;;;;;;7.85;2.28;;;12.80;96.70;;;;;;5001430;28;20745;-88
2020/12/25 08:55:45;;;;;;;12.63;2.50;;;12.80;96.70;;;;;;4966441;28;20049;-87
2020/12/25 08:58:16;;;;;;;12.32;2.85;;;12.60;96.70;;;;;;5002307;28;20052;-87
2020/12/25 09:00:55;;;;;;;11.45;2.20;;;12.40;96.70;;;;;;5002372;28;20045;-88
2020/12/25 09:03:23;;;;;;;8.32;1.45;;;12.30;96.70;;;;;;4983824;28;20120;-87
2020/12/25 09:05:50;;;;;;;8.82;2.08;;;12.20;96.70;;;;;;4986195;28;20165;-87
2020/12/25 09:08:17;;;;;;;13.02;1.88;;;12.20;96.70;;;;;;5001395;28;20100;-87
2020/12/25 09:10:44;;;;;;;11.15;2.70;;;12.10;96.70;;;;;;5004437;28;20041;-87
2020/12/25 09:13:11;;;;;;;21.00;9.35;;;12.20;96.70;;;;;;4994826;28;20290;-89
2020/12/25 09:15:38;;;;;;;8.10;2.30;;;12.20;96.70;;;;;;4987764;28;20092;-89
2020/12/25 09:18:06;;;;;;;12.65;3.50;;;12.40;96.70;;;;;;4999429;28;20129;-86
2020/12/25 09:20:33;;;;;;;7.88;1.70;;;12.40;96.70;;;;;;4989273;28;20051;-89
2020/12/25 09:23:01;;;;;;;10.10;3.53;;;12.50;96.70;;;;;;4986901;28;20049;-88
2020/12/25 09:25:29;;;;;;;12.55;5.80;;;12.60;96.70;;;;;;5004138;28;20496;-84
2020/12/25 09:27:56;;;;;;;12.73;5.75;;;12.70;96.70;;;;;;5004612;28;20533;-88
2020/12/25 09:30:23;;;;;;;9.93;4.30;;;12.80;96.70;;;;;;4987381;28;20046;-89
2020/12/25 09:32:50;;;;;;;9.60;5.97;;;12.90;96.70;;;;;;4968554;28;20053;-85
2020/12/25 09:35:18;;;;;;;12.98;5.05;;;13.00;96.70;;;;;;4967925;28;20125;-85
2020/12/25 09:37:46;;;;;;;10.70;5.07;;;13.10;96.70;;;;;;4985029;28;20050;-87
2020/12/25 09:40:13;;;;;;;14.48;5.68;;;13.20;96.70;;;;;;5000313;28;20052;-87
2020/12/25 09:42:40;;;;;;;15.27;6.85;;;13.30;96.70;;;;;;4976317;28;20500;-88
2020/12/25 09:45:07;;;;;;;17.50;8.73;;;13.50;96.70;;;;;;4980231;28;20050;-88
2020/12/25 09:47:35;;;;;;;11.02;4.15;;;13.50;96.70;;;;;;4986108;28;20057;-85
2020/12/25 09:50:03;;;;;;;17.13;7.28;;;13.70;96.70;;;;;;4985459;28;20038;-87
2020/12/25 09:52:31;;;;;;;22.98;12.18;;;13.80;96.70;;;;;;4997012;28;20411;-86
2020/12/25 09:54:58;;;;;;;21.27;13.10;;;13.90;96.70;;;;;;4969607;28;20030;-88
2020/12/25 09:57:26;;;;;;;29.77;15.10;;;14.00;96.70;;;;;;4994865;28;20140;-89
2020/12/25 09:59:55;;;;;;;19.92;11.07;;;14.20;96.70;;;;;;5001060;28;20062;-87
2020/12/25 10:02:22;;;;;;;11.15;4.35;;;14.30;96.70;;;;;;4970399;28;20394;-87
2020/12/25 10:04:50;;;;;;;6.57;1.95;;;14.30;96.70;;;;;;5001980;28;20068;-88
2020/12/25 10:07:17;;;;;;;6.85;2.60;;;14.30;96.70;;;;;;4986297;28;20061;-88
2020/12/25 10:09:47;;;;;;;10.10;2.08;;;14.30;96.70;;;;;;4986704;28;20530;-87
2020/12/25 10:12:15;;;;;;;9.48;1.58;;;14.30;96.70;;;;;;5002015;28;20072;-88
2020/12/25 10:14:42;;;;;;;6.57;1.92;;;14.20;96.70;;;;;;4990844;28;20042;-89
2020/12/25 10:17:10;;;;;;;6.50;3.00;;;14.20;96.70;;;;;;4991230;28;20128;-88
2020/12/25 10:19:37;;;;;;;6.57;1.58;;;14.20;96.70;;;;;;4989332;28;20073;-88
2020/12/25 10:22:05;;;;;;;8.15;1.55;;;14.20;96.70;;;;;;4985452;28;20048;-86
2020/12/25 10:24:32;;;;;;;9.43;2.00;;;14.20;96.70;;;;;;4989130;28;20417;-87
2020/12/25 10:27:00;;;;;;;8.20;1.90;;;14.30;96.70;;;;;;4987957;28;20460;-88
2020/12/25 10:29:28;;;;;;;9.00;1.85;;;14.40;96.70;;;;;;5005102;28;20104;-86
2020/12/25 10:31:56;;;;;;;6.55;1.85;;;14.60;96.70;;;;;;4983787;28;20072;-89
2020/12/25 10:34:23;;;;;;;6.75;1.83;;;14.60;96.70;;;;;;4970112;28;20049;-81
2020/12/25 10:36:51;;;;;;;8.85;2.72;;;14.60;96.70;;;;;;4966010;28;20077;-83
2020/12/25 10:39:18;;;;;;;11.63;4.03;;;14.70;96.70;;;;;;4968040;28;20171;-82
2020/12/25 10:41:45;;;;;;;7.95;2.53;;;14.70;96.70;;;;;;4965244;28;20500;-78
2020/12/25 10:44:13;;;;;;;20.40;11.25;;;14.60;96.30;;;;;;4967206;28;20048;-84
2020/12/25 10:46:41;;;;;;;34.00;21.75;;;14.40;95.50;;;;;;4970376;28;20151;-86
2020/12/25 10:49:08;;;;;;;6.25;2.08;;;14.50;96.20;;;;;;4983632;28;20076;-84
2020/12/25 10:51:36;;;;;;;9.38;2.30;;;14.50;96.00;;;;;;4969238;28;20125;-84
2020/12/25 10:54:03;;;;;;;8.45;2.10;;;14.60;96.70;;;;;;4967082;28;20049;-81
2020/12/25 10:56:31;;;;;;;10.75;2.88;;;14.50;96.70;;;;;;4984707;28;20046;-85
2020/12/25 10:59:19;;;;;;;11.02;1.92;;;14.40;96.70;;;;;;4984271;28;20047;-87
2020/12/25 11:01:48;;;;;;;37.50;25.38;;;14.10;96.70;;;;;;4951522;28;20057;-83
2020/12/25 11:04:15;;;;;;;18.10;8.98;;;13.90;96.70;;;;;;4967641;28;20046;-83
2020/12/25 11:06:44;;;;;;;19.77;7.60;;;13.80;96.70;;;;;;4957969;28;20133;-85
2020/12/25 11:09:11;;;;;;;16.17;6.90;;;13.90;96.70;;;;;;4983647;28;20046;-85
2020/12/25 11:11:40;;;;;;;13.90;3.45;;;13.80;96.70;;;;;;4972369;28;20045;-85
2020/12/25 11:14:08;;;;;;;18.15;3.55;;;13.80;96.70;;;;;;4964909;28;20265;-83
2020/12/25 11:16:39;;;;;;;10.70;2.53;;;13.80;96.70;;;;;;4969072;28;20046;-82
2020/12/25 11:19:08;;;;;;;8.82;2.58;;;13.80;96.70;;;;;;4983000;28;20065;-85
2020/12/25 11:21:36;;;;;;;12.40;2.13;;;13.90;96.70;;;;;;4980290;28;20064;-87
2020/12/25 11:24:05;;;;;;;15.02;3.33;;;14.20;96.00;;;;;;4967920;28;20504;-87
2020/12/25 11:26:33;;;;;;;11.65;2.40;;;14.30;95.60;;;;;;4968251;28;20042;-86
2020/12/25 11:29:03;;;;;;;14.57;2.40;;;14.30;94.90;;;;;;4983210;28;20157;-85
2020/12/25 11:31:31;;;;;;;9.07;1.83;;;14.30;94.90;;;;;;4957542;28;20583;-86
2020/12/25 11:34:00;;;;;;;8.32;2.55;;;14.40;94.90;;;;;;4997647;28;20041;-84
2020/12/25 11:36:29;;;;;;;8.20;2.15;;;14.60;95.70;;;;;;5002990;28;20050;-83
2020/12/25 11:38:56;;;;;;;9.63;1.92;;;14.70;96.20;;;;;;5003789;28;20042;-86
2020/12/25 11:41:25;;;;;;;14.40;2.33;;;14.70;95.80;;;;;;5023592;28;20269;-86
2020/12/25 11:43:54;;;;;;;8.70;1.98;;;14.80;96.00;;;;;;5005696;28;20050;-84
2020/12/25 11:46:23;;;;;;;5.85;1.55;;;14.90;94.50;;;;;;5019964;28;20050;-85
2020/12/25 11:48:54;;;;;;;7.28;1.67;;;14.90;93.50;;;;;;4966071;28;20132;-84
2020/12/25 11:51:23;;;;;;;9.70;1.58;;;14.90;92.30;;;;;;5001314;28;20163;-84
2020/12/25 11:53:51;;;;;;;8.57;1.70;;;14.90;92.80;;;;;;5006244;28;20118;-85
2020/12/25 11:56:19;;;;;;;6.95;1.52;;;15.00;93.50;;;;;;5001796;28;20037;-85
2020/12/25 11:58:47;;;;;;;8.73;1.73;;;15.00;93.40;;;;;;5007237;28;20041;-84
2020/12/25 12:01:14;;;;;;;7.57;2.08;;;15.00;94.40;;;;;;5017625;28;20404;-86
2020/12/25 12:03:42;;;;;;;9.93;1.45;;;15.00;94.70;;;;;;5023573;28;20076;-85
2020/12/25 12:06:10;;;;;;;5.53;1.10;;;15.00;93.40;;;;;;4998316;28;20060;-84
2020/12/25 12:08:38;;;;;;;7.65;2.63;;;15.00;91.60;;;;;;5022422;28;20037;-85
2020/12/25 12:11:24;;;;;;;8.10;1.83;;;15.00;91.60;;;;;;5009082;28;20041;-85
2020/12/25 12:13:52;;;;;;;5.55;1.30;;;15.00;90.80;;;;;;4987690;28;20037;-85
2020/12/25 12:16:21;;;;;;;7.00;2.10;;;14.80;90.20;;;;;;5005566;28;20095;-85
2020/12/25 12:18:50;;;;;;;6.13;2.75;;;14.90;90.60;;;;;;5005574;28;20045;-86
2020/12/25 12:21:18;;;;;;;6.90;1.95;;;14.80;91.00;;;;;;5005450;28;20025;-84
2020/12/25 12:23:46;;;;;;;9.80;2.20;;;14.80;92.30;;;;;;4990544;28;20044;-85
2020/12/25 12:26:14;;;;;;;9.68;2.80;;;15.00;92.60;;;;;;5022476;28;20045;-85
2020/12/25 12:28:41;;;;;;;9.57;2.83;;;15.00;93.20;;;;;;5007571;28;20073;-85
2020/12/25 12:31:09;;;;;;;5.78;1.65;;;15.00;93.40;;;;;;5004075;28;20063;-85
2020/12/25 12:33:37;;;;;;;7.53;2.25;;;15.00;93.30;;;;;;4990013;28;20054;-86
2020/12/25 12:36:06;;;;;;;9.05;1.60;;;14.90;91.70;;;;;;4989904;28;20114;-85
2020/12/25 12:38:33;;;;;;;11.10;4.13;;;14.80;91.50;;;;;;5000190;28;20444;-85
2020/12/25 12:41:01;;;;;;;6.90;1.83;;;14.90;91.60;;;;;;5002827;28;20045;-85
2020/12/25 12:43:29;;;;;;;9.18;1.52;;;15.00;90.90;;;;;;4985232;28;20079;-84
2020/12/25 12:45:56;;;;;;;7.47;2.20;;;14.90;91.40;;;;;;5010803;28;20515;-85
2020/12/25 12:48:24;;;;;;;10.50;1.73;;;15.00;89.60;;;;;;4998718;28;20038;-84